createdAt,value
2022-07-29T00:00:23.995Z,41.90
2022-07-29T00:02:52.013Z,41.77
2022-07-29T00:05:20.005Z,41.94
2022-07-29T00:07:47.971Z,41.97
2022-07-29T00:10:17.207Z,41.99
2022-07-29T00:12:44.991Z,41.93
2022-07-29T00:15:12.763Z,41.97
2022-07-29T00:17:40.587Z,41.91
2022-07-29T00:20:09.719Z,42.00
2022-07-29T00:22:39.944Z,41.98
2022-07-29T00:25:09.762Z,42.09
2022-07-29T00:27:39.071Z,42.04
2022-07-29T00:30:08.509Z,42.10
2022-07-29T00:32:36.522Z,42.11
2022-07-29T00:35:22.127Z,42.14
2022-07-29T00:37:49.895Z,42.26
2022-07-29T00:40:17.729Z,42.31
2022-07-29T00:42:48.462Z,42.46
2022-07-29T00:45:16.815Z,42.28
2022-07-29T00:47:44.916Z,42.97
2022-07-29T00:50:14.229Z,43.29
2022-07-29T00:52:44.290Z,44.17
2022-07-29T00:55:14.272Z,44.76
2022-07-29T00:57:44.572Z,45.38
2022-07-29T01:00:16.578Z,45.55
2022-07-29T01:02:44.568Z,45.77
2022-07-29T01:05:13.837Z,46.22
2022-07-29T01:07:42.159Z,46.67
2022-07-29T01:10:12.092Z,47.28
2022-07-29T01:12:40.289Z,47.23
2022-07-29T01:15:09.939Z,47.29
2022-07-29T01:17:50.381Z,47.40
2022-07-29T01:20:31.655Z,47.55
2022-07-29T01:23:32.643Z,48.55
2022-07-29T01:26:24.310Z,48.85
2022-07-29T01:29:11.261Z,49.05
2022-07-29T01:31:49.165Z,49.68
2022-07-29T01:34:32.187Z,49.85
2022-07-29T01:37:08.678Z,49.50
2022-07-29T01:39:38.131Z,49.15
2022-07-29T01:42:14.745Z,48.89
2022-07-29T01:44:50.404Z,49.36
2022-07-29T01:47:22.424Z,49.42
2022-07-29T01:49:54.952Z,49.12
2022-07-29T01:52:27.835Z,49.01
2022-07-29T01:54:59.339Z,49.70
2022-07-29T01:57:31.244Z,50.12
2022-07-29T02:00:02.879Z,50.00
2022-07-29T02:02:33.836Z,50.35
2022-07-29T02:05:04.254Z,50.46
2022-07-29T02:07:35.116Z,50.59
2022-07-29T02:10:06.003Z,50.52
2022-07-29T02:12:34.600Z,50.31
2022-07-29T02:15:06.579Z,50.68
2022-07-29T02:17:41.385Z,50.38
2022-07-29T02:20:11.241Z,50.54
2022-07-29T02:22:41.231Z,50.94
2022-07-29T02:25:13.779Z,50.83
2022-07-29T02:27:43.748Z,50.85
2022-07-29T02:30:14.701Z,50.72
2022-07-29T02:32:43.991Z,50.70
2022-07-29T02:35:17.162Z,51.03
2022-07-29T02:38:07.618Z,50.68
2022-07-29T02:40:37.313Z,50.98
2022-07-29T02:43:08.612Z,51.51
2022-07-29T02:45:38.332Z,51.00
2022-07-29T02:48:11.993Z,51.06
2022-07-29T02:50:44.952Z,50.87
2022-07-29T02:53:17.732Z,51.25
2022-07-29T02:55:48.553Z,51.11
2022-07-29T02:58:27.236Z,51.54
2022-07-29T03:00:58.844Z,51.58
2022-07-29T03:03:31.652Z,51.21
2022-07-29T03:06:01.940Z,51.69
2022-07-29T03:08:30.316Z,51.83
2022-07-29T03:10:58.653Z,51.58
2022-07-29T03:13:27.990Z,52.17
2022-07-29T03:15:58.621Z,51.89
2022-07-29T03:18:27.147Z,51.98
2022-07-29T03:20:55.207Z,52.00
2022-07-29T03:23:24.867Z,51.97
2022-07-29T03:25:53.219Z,51.79
2022-07-29T03:28:23.573Z,51.93
2022-07-29T03:30:55.435Z,51.69
2022-07-29T03:33:24.597Z,52.18
2022-07-29T03:35:52.321Z,52.18
2022-07-29T03:38:21.029Z,52.21
2022-07-29T03:41:03.157Z,51.86
2022-07-29T03:43:34.823Z,52.15
2022-07-29T03:46:04.237Z,52.21
2022-07-29T03:48:36.893Z,51.95
2022-07-29T03:51:04.907Z,52.36
2022-07-29T03:53:33.267Z,52.21
2022-07-29T03:56:03.748Z,51.86
2022-07-29T03:58:33.699Z,52.11
2022-07-29T04:01:01.963Z,52.22
2022-07-29T04:03:30.092Z,52.26
2022-07-29T04:06:04.539Z,52.39
2022-07-29T04:08:32.276Z,52.24
2022-07-29T04:11:00.008Z,52.36
2022-07-29T04:13:27.789Z,52.30
2022-07-29T04:15:55.642Z,52.67
2022-07-29T04:18:23.722Z,52.73
2022-07-29T04:20:51.552Z,52.92
2022-07-29T04:23:20.791Z,52.46
2022-07-29T04:25:49.576Z,52.76
2022-07-29T04:28:17.305Z,52.77
2022-07-29T04:30:45.214Z,52.56
2022-07-29T04:33:13.037Z,53.00
2022-07-29T04:35:50.006Z,52.58
2022-07-29T04:38:21.513Z,52.27
2022-07-29T04:40:49.762Z,52.46
2022-07-29T04:43:22.539Z,51.91
2022-07-29T04:45:51.286Z,52.18
2022-07-29T04:48:19.121Z,52.43
2022-07-29T04:50:46.865Z,52.34
2022-07-29T04:53:14.615Z,52.26
2022-07-29T04:55:43.883Z,51.99
2022-07-29T04:58:11.690Z,52.29
2022-07-29T05:00:39.656Z,52.43
2022-07-29T05:03:07.596Z,52.37
2022-07-29T05:05:35.443Z,52.65
2022-07-29T05:08:03.222Z,52.39
2022-07-29T05:10:31.220Z,52.44
2022-07-29T05:13:00.382Z,52.87
2022-07-29T05:15:28.264Z,53.01
2022-07-29T05:17:56.135Z,52.90
2022-07-29T05:20:27.382Z,53.22
2022-07-29T05:22:55.336Z,52.98
2022-07-29T05:25:23.483Z,53.17
2022-07-29T05:28:09.934Z,53.57
2022-07-29T05:30:37.763Z,53.35
2022-07-29T05:33:05.649Z,53.50
2022-07-29T05:35:33.417Z,53.59
2022-07-29T05:38:01.284Z,53.56
2022-07-29T05:40:29.345Z,53.46
2022-07-29T05:42:57.767Z,53.34
2022-07-29T05:45:26.878Z,53.80
2022-07-29T05:47:54.688Z,53.82
2022-07-29T05:50:22.470Z,53.81
2022-07-29T05:52:50.313Z,53.98
2022-07-29T05:55:18.148Z,53.59
2022-07-29T05:57:46.641Z,53.47
2022-07-29T06:00:15.148Z,53.62
2022-07-29T06:02:44.293Z,53.69
2022-07-29T06:05:16.513Z,53.32
2022-07-29T06:07:50.774Z,53.47
2022-07-29T06:10:20.012Z,53.31
2022-07-29T06:12:51.715Z,53.79
2022-07-29T06:15:22.820Z,53.72
2022-07-29T06:18:00.050Z,53.93
2022-07-29T06:20:30.864Z,54.02
2022-07-29T06:22:59.169Z,53.93
2022-07-29T06:25:27.390Z,54.00
2022-07-29T06:27:55.203Z,53.76
2022-07-29T06:30:23.044Z,53.56
2022-07-29T06:32:52.254Z,53.92
2022-07-29T06:35:39.278Z,54.04
2022-07-29T06:38:13.812Z,54.00
2022-07-29T06:41:05.095Z,54.11
2022-07-29T06:43:35.029Z,53.89
2022-07-29T06:46:04.714Z,54.09
2022-07-29T06:48:34.857Z,54.27
2022-07-29T06:51:02.799Z,54.19
2022-07-29T06:53:31.600Z,54.13
2022-07-29T06:56:00.220Z,54.37
2022-07-29T06:58:28.613Z,54.19
2022-07-29T07:00:56.896Z,54.37
2022-07-29T07:03:25.070Z,54.58
2022-07-29T07:05:55.368Z,54.99
2022-07-29T07:08:24.624Z,55.04
2022-07-29T07:10:52.464Z,54.80
2022-07-29T07:13:20.779Z,54.99
2022-07-29T07:15:49.471Z,54.87
2022-07-29T07:18:17.912Z,54.83
2022-07-29T07:20:46.131Z,54.59
2022-07-29T07:23:15.409Z,54.40
2022-07-29T07:25:43.358Z,53.95
2022-07-29T07:28:11.482Z,53.69
2022-07-29T07:30:39.334Z,53.77
2022-07-29T07:33:07.146Z,53.94
2022-07-29T07:35:35.344Z,54.09
2022-07-29T07:38:03.351Z,53.96
2022-07-29T07:40:32.518Z,54.03
2022-07-29T07:43:00.359Z,54.07
2022-07-29T07:45:29.212Z,54.01
2022-07-29T07:47:57.079Z,54.50
2022-07-29T07:50:25.103Z,54.41
2022-07-29T07:52:55.955Z,54.42
2022-07-29T07:55:23.848Z,54.27
2022-07-29T07:57:52.979Z,54.22
2022-07-29T08:00:23.754Z,54.29
2022-07-29T08:02:52.324Z,54.36
2022-07-29T08:05:20.472Z,54.40
2022-07-29T08:07:49.030Z,54.26
2022-07-29T08:10:37.321Z,54.18
2022-07-29T08:13:07.393Z,54.14
2022-07-29T08:15:35.340Z,54.31
2022-07-29T08:18:08.356Z,54.06
2022-07-29T08:20:37.550Z,54.16
2022-07-29T08:23:06.955Z,54.11
2022-07-29T08:25:38.534Z,54.03
2022-07-29T08:28:09.118Z,53.90
2022-07-29T08:30:37.326Z,53.87
2022-07-29T08:33:05.403Z,53.81
2022-07-29T08:35:35.515Z,53.72
2022-07-29T08:38:04.508Z,53.81
2022-07-29T08:40:32.933Z,53.92
2022-07-29T08:43:06.418Z,53.72
2022-07-29T08:45:48.184Z,53.69
2022-07-29T08:48:17.684Z,53.54
2022-07-29T08:50:46.752Z,53.75
2022-07-29T08:53:16.809Z,53.79
2022-07-29T08:55:46.128Z,53.95
2022-07-29T08:58:15.855Z,53.82
2022-07-29T09:00:47.559Z,53.93
2022-07-29T09:03:20.445Z,54.09
2022-07-29T09:05:49.233Z,54.05
2022-07-29T09:08:18.432Z,54.12
2022-07-29T09:10:46.798Z,54.18
2022-07-29T09:13:14.695Z,54.25
2022-07-29T09:15:42.566Z,54.16
2022-07-29T09:18:20.473Z,54.13
2022-07-29T09:21:16.694Z,54.19
2022-07-29T09:24:01.800Z,54.23
2022-07-29T09:26:30.660Z,54.22
2022-07-29T09:28:58.922Z,54.24
2022-07-29T09:31:35.516Z,54.19
2022-07-29T09:34:05.831Z,54.18
2022-07-29T09:36:41.478Z,54.07
2022-07-29T09:39:09.480Z,55.25
2022-07-29T09:41:48.903Z,54.33
2022-07-29T09:44:17.357Z,54.24
2022-07-29T09:46:59.762Z,54.28
2022-07-29T09:49:29.066Z,54.40
2022-07-29T09:52:08.278Z,54.33
2022-07-29T09:54:38.759Z,54.13
2022-07-29T09:57:08.273Z,53.94
2022-07-29T09:59:36.163Z,54.43
2022-07-29T10:02:22.748Z,54.48
2022-07-29T10:04:53.310Z,54.44
2022-07-29T10:07:21.150Z,54.23
2022-07-29T10:09:54.436Z,54.21
2022-07-29T10:12:22.261Z,54.01
2022-07-29T10:14:51.181Z,53.61
2022-07-29T10:17:20.300Z,53.78
2022-07-29T10:19:50.570Z,53.81
2022-07-29T10:22:43.597Z,53.85
2022-07-29T10:25:08.618Z,53.65
2022-07-29T10:27:37.016Z,53.97
2022-07-29T10:30:05.939Z,53.99
2022-07-29T10:32:50.137Z,53.84
2022-07-29T10:35:33.224Z,53.73
2022-07-29T10:38:24.671Z,53.59
2022-07-29T10:41:21.960Z,53.50
2022-07-29T10:43:52.202Z,53.60
2022-07-29T10:46:20.479Z,54.53
2022-07-29T10:49:08.393Z,54.32
2022-07-29T10:51:58.554Z,53.64
2022-07-29T10:54:45.861Z,53.26
2022-07-29T10:57:20.739Z,53.09
2022-07-29T10:59:50.379Z,52.96
2022-07-29T11:02:43.858Z,52.75
2022-07-29T11:05:14.215Z,52.21
2022-07-29T11:11:39.555Z,52.29
2022-07-29T11:14:13.415Z,52.52
2022-07-29T11:17:01.233Z,51.89
2022-07-29T11:19:30.508Z,51.53
2022-07-29T11:21:59.396Z,51.72
2022-07-29T11:24:32.434Z,51.92
2022-07-29T11:27:18.059Z,52.21
2022-07-29T11:29:54.758Z,51.67
2022-07-29T11:32:24.994Z,51.83
2022-07-29T11:35:17.817Z,51.99
2022-07-29T11:37:52.645Z,51.84
2022-07-29T11:40:35.166Z,51.71
2022-07-29T11:43:07.180Z,51.49
2022-07-29T11:45:49.164Z,51.52
2022-07-29T11:48:31.491Z,51.23
2022-07-29T11:51:01.110Z,51.09
2022-07-29T11:53:32.647Z,50.78
2022-07-29T11:56:02.821Z,49.96
2022-07-29T11:58:31.804Z,49.95
2022-07-29T12:01:04.073Z,50.93
2022-07-29T12:06:21.303Z,49.23
2022-07-29T12:08:49.179Z,48.69
2022-07-29T12:11:21.461Z,48.93
2022-07-29T12:13:51.953Z,48.77
2022-07-29T12:16:25.903Z,49.33
2022-07-29T12:18:59.621Z,49.47
2022-07-29T12:21:28.866Z,49.17
2022-07-29T12:24:03.424Z,49.39
2022-07-29T12:26:35.734Z,48.24
2022-07-29T12:29:04.461Z,48.81
2022-07-29T12:31:43.922Z,48.02
2022-07-29T12:34:14.015Z,47.98
2022-07-29T12:36:43.068Z,48.16
2022-07-29T12:39:11.556Z,47.69
2022-07-29T12:41:39.895Z,47.31
2022-07-29T12:44:07.663Z,48.17
2022-07-29T12:46:35.638Z,48.17
2022-07-29T12:49:06.273Z,48.22
2022-07-29T12:51:37.409Z,48.41
2022-07-29T12:54:11.394Z,47.67
2022-07-29T12:56:44.390Z,45.94
2022-07-29T12:59:19.829Z,47.24
2022-07-29T13:01:50.149Z,46.75
2022-07-29T13:04:28.734Z,46.76
2022-07-29T13:07:04.393Z,47.25
2022-07-29T13:09:39.615Z,45.72
2022-07-29T13:12:09.414Z,45.56
2022-07-29T13:14:38.952Z,46.13
2022-07-29T13:17:09.148Z,46.12
2022-07-29T13:19:42.773Z,45.62
2022-07-29T13:22:11.144Z,45.35
2022-07-29T13:24:50.440Z,45.47
2022-07-29T13:27:18.567Z,45.57
2022-07-29T13:29:47.444Z,45.96
2022-07-29T13:32:15.765Z,45.57
2022-07-29T13:34:45.197Z,46.04
2022-07-29T13:37:13.088Z,45.01
2022-07-29T13:39:41.630Z,45.13
2022-07-29T13:42:10.988Z,45.06
2022-07-29T13:44:39.151Z,44.86
2022-07-29T13:47:07.315Z,45.42
2022-07-29T13:49:35.119Z,45.29
2022-07-29T13:52:05.735Z,46.03
2022-07-29T13:54:33.540Z,44.42
2022-07-29T13:57:01.327Z,44.19
2022-07-29T13:59:29.065Z,45.19
2022-07-29T14:01:57.398Z,45.34
2022-07-29T14:04:25.576Z,45.20
2022-07-29T14:06:53.942Z,44.35
2022-07-29T14:09:23.122Z,44.85
2022-07-29T14:11:52.319Z,44.97
2022-07-29T14:14:20.564Z,44.95
2022-07-29T14:16:52.064Z,45.51
2022-07-29T14:19:20.342Z,45.14
2022-07-29T14:21:48.134Z,44.42
2022-07-29T14:24:23.064Z,44.04
2022-07-29T14:26:53.064Z,43.25
2022-07-29T14:29:20.867Z,43.89
2022-07-29T14:31:48.749Z,43.58
2022-07-29T14:34:17.002Z,43.30
2022-07-29T14:36:44.807Z,42.51
2022-07-29T14:39:12.948Z,42.56
2022-07-29T14:41:41.035Z,42.74
2022-07-29T14:44:10.482Z,42.00
2022-07-29T14:46:38.260Z,41.47
2022-07-29T14:49:06.987Z,41.82
2022-07-29T14:51:37.625Z,41.97
2022-07-29T14:54:05.652Z,41.69
2022-07-29T14:56:36.942Z,41.29
2022-07-29T14:59:05.479Z,41.05
2022-07-29T15:01:34.862Z,41.00
2022-07-29T15:04:02.658Z,41.09
2022-07-29T15:06:30.435Z,41.61
2022-07-29T15:08:58.168Z,41.08
2022-07-29T15:11:26.470Z,41.38
2022-07-29T15:13:54.288Z,41.41
2022-07-29T15:16:22.999Z,41.21
2022-07-29T15:18:52.531Z,41.50
2022-07-29T15:21:20.342Z,41.25
2022-07-29T15:23:48.071Z,41.92
2022-07-29T15:26:16.403Z,42.37
2022-07-29T15:28:44.196Z,42.96
2022-07-29T15:31:11.998Z,42.79
2022-07-29T15:33:39.853Z,41.58
2022-07-29T15:36:09.305Z,42.33
2022-07-29T15:38:40.489Z,42.38
2022-07-29T15:41:10.086Z,41.18
2022-07-29T15:43:38.302Z,40.84
2022-07-29T15:46:23.874Z,41.61
2022-07-29T15:48:51.697Z,41.07
2022-07-29T15:51:21.271Z,40.96
2022-07-29T15:53:53.707Z,41.42
2022-07-29T15:56:21.697Z,42.23
2022-07-29T15:58:49.539Z,41.75
2022-07-29T16:01:17.384Z,41.20
2022-07-29T16:03:46.383Z,41.52
2022-07-29T16:06:15.426Z,41.04
2022-07-29T16:08:44.797Z,41.20
2022-07-29T16:11:12.588Z,41.29
2022-07-29T16:13:40.515Z,41.35
2022-07-29T16:16:08.995Z,41.64
2022-07-29T16:18:37.094Z,41.15
2022-07-29T16:21:04.976Z,41.43
2022-07-29T16:23:33.323Z,41.50
2022-07-29T16:26:04.144Z,40.79
2022-07-29T16:28:31.897Z,40.82
2022-07-29T16:30:59.721Z,41.05
2022-07-29T16:33:27.539Z,41.20
2022-07-29T16:35:55.583Z,40.83
2022-07-29T16:38:23.489Z,40.42
2022-07-29T16:40:51.484Z,40.17
2022-07-29T16:43:20.628Z,39.75
2022-07-29T16:45:48.587Z,39.70
2022-07-29T16:48:17.307Z,40.08
2022-07-29T16:50:46.066Z,40.59
2022-07-29T16:53:13.931Z,40.83
2022-07-29T16:55:42.021Z,40.28
2022-07-29T16:58:10.526Z,40.69
2022-07-29T17:00:40.292Z,40.36
2022-07-29T17:03:08.293Z,40.98
2022-07-29T17:05:52.610Z,41.03
2022-07-29T17:08:22.316Z,40.87
2022-07-29T17:10:50.189Z,40.97
2022-07-29T17:13:17.955Z,40.87
2022-07-29T17:15:47.119Z,40.59
2022-07-29T17:20:42.704Z,40.25
2022-07-29T17:23:10.693Z,40.23
2022-07-29T17:25:38.463Z,40.67
2022-07-29T17:28:06.308Z,40.58
2022-07-29T17:30:34.103Z,40.74
2022-07-29T17:33:03.244Z,40.62
2022-07-29T17:35:48.824Z,40.44
2022-07-29T17:38:16.640Z,40.56
2022-07-29T17:40:44.467Z,40.92
2022-07-29T17:43:12.187Z,40.73
2022-07-29T17:45:50.318Z,40.92
2022-07-29T17:48:20.075Z,40.96
2022-07-29T17:50:48.073Z,40.67
2022-07-29T17:53:16.859Z,40.95
2022-07-29T17:55:45.893Z,40.87
2022-07-29T17:58:14.038Z,41.02
2022-07-29T18:00:41.986Z,41.32
2022-07-29T18:03:10.495Z,41.20
2022-07-29T18:05:40.140Z,41.34
2022-07-29T18:08:08.143Z,41.67
2022-07-29T18:10:36.060Z,41.39
2022-07-29T18:13:04.113Z,41.64
2022-07-29T18:15:32.067Z,41.48
2022-07-29T18:18:00.009Z,41.71
2022-07-29T18:20:28.162Z,41.68
2022-07-29T18:22:57.493Z,42.13
2022-07-29T18:25:25.759Z,42.24
2022-07-29T18:27:57.268Z,42.32
2022-07-29T18:30:28.225Z,42.64
2022-07-29T18:33:19.589Z,42.69
2022-07-29T18:35:44.247Z,42.65
2022-07-29T18:38:13.368Z,42.60
2022-07-29T18:40:42.344Z,42.62
2022-07-29T18:43:10.415Z,42.86
2022-07-29T18:45:39.671Z,43.09
2022-07-29T18:48:08.457Z,43.22
2022-07-29T18:50:40.887Z,43.10
2022-07-29T18:53:09.510Z,42.88
2022-07-29T18:55:38.866Z,42.81
2022-07-29T18:58:06.788Z,43.11
2022-07-29T19:00:35.359Z,43.42
2022-07-29T19:03:04.304Z,43.34
2022-07-29T19:05:32.654Z,43.19
2022-07-29T19:08:00.521Z,43.21
2022-07-29T19:10:28.343Z,43.31
2022-07-29T19:12:57.935Z,43.54
2022-07-29T19:15:26.227Z,43.41
2022-07-29T19:17:56.641Z,43.47
2022-07-29T19:20:29.067Z,43.54
2022-07-29T19:22:56.889Z,43.54
2022-07-29T19:25:24.951Z,43.76
2022-07-29T19:27:52.789Z,43.83
2022-07-29T19:30:22.189Z,43.81
2022-07-29T19:32:49.956Z,43.78
2022-07-29T19:35:31.007Z,43.69
2022-07-29T19:38:01.122Z,43.76
2022-07-29T19:40:29.938Z,43.79
2022-07-29T19:42:58.147Z,43.48
2022-07-29T19:45:27.587Z,43.66
2022-07-29T19:48:01.107Z,43.46
2022-07-29T19:50:30.007Z,43.48
2022-07-29T19:52:57.965Z,43.66
2022-07-29T19:55:25.796Z,43.63
2022-07-29T19:57:54.016Z,43.85
2022-07-29T20:00:24.601Z,43.58
2022-07-29T20:02:54.059Z,43.65
2022-07-29T20:05:21.921Z,43.76
2022-07-29T20:07:56.294Z,43.77
2022-07-29T20:10:24.251Z,43.86
2022-07-29T20:12:55.076Z,43.82
2022-07-29T20:15:23.350Z,43.84
2022-07-29T20:17:55.294Z,43.71
2022-07-29T20:20:26.937Z,43.91
2022-07-29T20:22:55.042Z,44.07
2022-07-29T20:25:22.962Z,44.05
2022-07-29T20:27:52.386Z,44.02
2022-07-29T20:30:20.887Z,43.88
2022-07-29T20:32:49.141Z,44.09
2022-07-29T20:35:17.452Z,43.92
2022-07-29T20:37:55.715Z,44.30
2022-07-29T20:40:24.871Z,44.42
2022-07-29T20:42:52.654Z,44.15
2022-07-29T20:45:21.002Z,44.13
2022-07-29T20:47:48.767Z,44.56
2022-07-29T20:50:16.979Z,44.49
2022-07-29T20:52:44.843Z,44.36
2022-07-29T20:55:14.026Z,44.67
2022-07-29T20:57:41.787Z,44.47
2022-07-29T21:00:10.423Z,44.65
2022-07-29T21:02:38.379Z,44.65
2022-07-29T21:05:07.244Z,44.81
2022-07-29T21:07:35.235Z,44.72
2022-07-29T21:10:03.083Z,44.86
2022-07-29T21:12:33.780Z,45.05
2022-07-29T21:15:05.689Z,45.14
2022-07-29T21:17:36.009Z,44.96
2022-07-29T21:20:05.453Z,45.07
2022-07-29T21:22:33.304Z,45.09
2022-07-29T21:25:01.712Z,45.20
2022-07-29T21:27:47.220Z,45.29
2022-07-29T21:30:16.540Z,45.13
2022-07-29T21:32:44.360Z,45.22
2022-07-29T21:35:22.318Z,45.29
2022-07-29T21:38:00.502Z,45.28
2022-07-29T21:40:28.489Z,45.33
2022-07-29T21:42:56.252Z,45.26
2022-07-29T21:45:25.498Z,45.42
2022-07-29T21:47:53.230Z,45.38
2022-07-29T21:50:21.407Z,45.43
2022-07-29T21:52:49.215Z,45.43
2022-07-29T21:55:17.986Z,45.26
2022-07-29T21:57:47.137Z,45.30
2022-07-29T22:00:16.042Z,45.51
2022-07-29T22:02:45.626Z,45.65
2022-07-29T22:05:13.945Z,45.49
2022-07-29T22:07:55.834Z,45.77
2022-07-29T22:10:25.721Z,46.05
2022-07-29T22:12:54.421Z,45.85
2022-07-29T22:15:22.806Z,46.12
2022-07-29T22:17:52.187Z,46.60
2022-07-29T22:20:20.532Z,46.69
2022-07-29T22:22:48.339Z,46.94
2022-07-29T22:25:16.386Z,47.30
2022-07-29T22:27:44.641Z,47.53
2022-07-29T22:30:13.328Z,47.46
2022-07-29T22:32:41.973Z,47.50
2022-07-29T22:35:11.847Z,47.49
2022-07-29T22:37:40.261Z,47.00
2022-07-29T22:40:09.198Z,47.43
2022-07-29T22:42:40.908Z,47.04
2022-07-29T22:45:10.412Z,47.38
2022-07-29T22:47:46.361Z,47.41
2022-07-29T22:50:17.785Z,47.68
2022-07-29T22:52:45.941Z,47.99
2022-07-29T22:55:14.037Z,48.57
2022-07-29T22:57:41.920Z,48.70
2022-07-29T23:00:11.074Z,48.89
2022-07-29T23:02:40.189Z,49.14
2022-07-29T23:05:10.303Z,49.19
2022-07-29T23:07:39.606Z,49.14
2022-07-29T23:10:08.020Z,49.02
2022-07-29T23:12:35.909Z,48.92
2022-07-29T23:15:04.550Z,49.18
2022-07-29T23:17:36.324Z,49.21
2022-07-29T23:20:06.670Z,49.25
2022-07-29T23:22:34.676Z,49.46
2022-07-29T23:25:05.008Z,49.35
2022-07-29T23:27:32.889Z,49.93
2022-07-29T23:30:00.715Z,49.88
2022-07-29T23:32:28.533Z,50.14
2022-07-29T23:34:56.291Z,50.35
2022-07-29T23:37:24.206Z,50.70
2022-07-29T23:39:55.094Z,50.94
2022-07-29T23:42:24.267Z,51.00
2022-07-29T23:44:52.016Z,51.38
2022-07-29T23:47:19.883Z,51.54
2022-07-29T23:49:49.871Z,51.84
2022-07-29T23:52:17.763Z,52.02
2022-07-29T23:54:45.528Z,52.08
2022-07-29T23:57:13.308Z,52.19
2022-07-29T23:59:42.444Z,51.91
